createdAt,value
2023-05-17T00:00:55.267Z,98581.38
2023-05-17T00:03:21.754Z,98596.69
2023-05-17T00:05:48.304Z,98599.28
2023-05-17T00:08:15.053Z,98595.88
2023-05-17T00:10:41.666Z,98596.72
2023-05-17T00:13:08.152Z,98594.16
2023-05-17T00:15:34.789Z,98594.19
2023-05-17T00:18:01.464Z,98592.50
2023-05-17T00:20:28.064Z,98592.50
2023-05-17T00:22:54.688Z,98594.22
2023-05-17T00:25:21.235Z,98594.25
2023-05-17T00:27:47.706Z,98598.50
2023-05-17T00:30:14.653Z,98597.66
2023-05-17T00:32:41.320Z,98606.19
2023-05-17T00:35:08.004Z,98601.94
2023-05-17T00:37:34.518Z,98608.75
2023-05-17T00:40:01.036Z,98607.06
2023-05-17T00:42:27.587Z,98611.31
2023-05-17T00:44:54.061Z,98613.03
2023-05-17T00:47:20.604Z,98607.06
2023-05-17T00:49:47.113Z,98610.47
2023-05-17T00:52:13.691Z,98608.78
2023-05-17T00:54:40.505Z,98603.66
2023-05-17T00:57:07.650Z,98612.19
2023-05-17T00:59:34.500Z,98619.84
2023-05-17T01:02:01.972Z,98615.59
2023-05-17T01:04:30.073Z,98614.72
2023-05-17T01:06:56.984Z,98618.13
2023-05-17T01:09:23.668Z,98611.34
2023-05-17T01:11:56.249Z,98613.91
2023-05-17T01:14:59.897Z,98618.97
2023-05-17T01:17:39.919Z,98625.81
2023-05-17T01:20:14.243Z,98624.97
2023-05-17T01:23:26.855Z,98628.34
2023-05-17T01:26:03.821Z,98630.91
2023-05-17T01:28:32.002Z,98630.03
2023-05-17T01:31:01.198Z,98633.44
2023-05-17T01:33:27.770Z,98634.31
2023-05-17T01:35:54.347Z,98630.88
2023-05-17T01:38:21.078Z,98630.88
2023-05-17T01:41:18.442Z,98635.16
2023-05-17T01:44:09.909Z,98643.66
2023-05-17T01:46:41.804Z,98643.63
2023-05-17T01:49:21.734Z,98635.16
2023-05-17T01:51:56.023Z,98640.22
2023-05-17T01:54:28.201Z,98641.91
2023-05-17T01:56:59.538Z,98647.88
2023-05-17T01:59:27.600Z,98646.16
2023-05-17T02:02:06.399Z,98647.84
2023-05-17T02:04:33.108Z,98651.25
2023-05-17T02:06:59.708Z,98650.41
2023-05-17T02:09:26.241Z,98647.00
2023-05-17T02:11:52.680Z,98646.13
2023-05-17T02:14:19.292Z,98651.22
2023-05-17T02:16:45.802Z,98653.78
2023-05-17T02:19:13.324Z,98652.94
2023-05-17T02:21:40.080Z,98659.72
2023-05-17T02:24:06.900Z,98654.59
2023-05-17T02:26:33.478Z,98661.41
2023-05-17T02:29:00.148Z,98657.97
2023-05-17T02:31:26.840Z,98658.81
2023-05-17T02:33:56.796Z,98652.03
2023-05-17T02:36:23.421Z,98659.66
2023-05-17T02:38:49.920Z,98661.34
2023-05-17T02:41:16.429Z,98658.78
2023-05-17T02:43:43.044Z,98669.81
2023-05-17T02:46:09.570Z,98667.25
2023-05-17T02:48:36.089Z,98663.00
2023-05-17T02:51:02.568Z,98667.22
2023-05-17T02:53:29.133Z,98670.59
2023-05-17T02:55:58.126Z,98665.50
2023-05-17T02:58:25.410Z,98670.59
2023-05-17T03:00:52.196Z,98668.94
2023-05-17T03:03:18.916Z,98679.97
2023-05-17T03:05:45.559Z,98685.91
2023-05-17T03:08:12.079Z,98685.91
2023-05-17T03:10:38.679Z,98683.34
2023-05-17T03:13:05.185Z,98692.66
2023-05-17T03:15:31.699Z,98690.97
2023-05-17T03:17:58.566Z,98691.78
2023-05-17T03:20:25.173Z,98696.88
2023-05-17T03:22:51.652Z,98702.81
2023-05-17T03:25:18.223Z,98707.06
2023-05-17T03:27:44.936Z,98712.13
2023-05-17T03:30:11.870Z,98706.13
2023-05-17T03:32:40.557Z,98706.13
2023-05-17T03:35:08.382Z,98712.09
2023-05-17T03:37:35.036Z,98706.22
2023-05-17T03:40:01.505Z,98710.44
2023-05-17T03:42:28.050Z,98716.41
2023-05-17T03:44:54.737Z,98717.28
2023-05-17T03:47:23.984Z,98718.16
2023-05-17T03:49:50.845Z,98725.88
2023-05-17T03:52:17.414Z,98720.81
2023-05-17T03:54:44.611Z,98720.00
2023-05-17T03:57:12.206Z,98721.75
2023-05-17T03:59:38.694Z,98723.50
2023-05-17T04:02:05.692Z,98721.81
2023-05-17T04:04:32.296Z,98731.19
2023-05-17T04:06:59.019Z,98736.31
2023-05-17T04:09:26.081Z,98736.41
2023-05-17T04:11:52.672Z,98736.41
2023-05-17T04:14:19.594Z,98738.19
2023-05-17T04:16:46.160Z,98739.88
2023-05-17T04:19:12.939Z,98738.13
2023-05-17T04:21:39.977Z,98736.34
2023-05-17T04:24:06.971Z,98742.19
2023-05-17T04:26:33.630Z,98749.53
2023-05-17T04:29:00.390Z,98757.41
2023-05-17T04:31:27.063Z,98750.44
2023-05-17T04:33:53.635Z,98756.94
2023-05-17T04:36:20.131Z,98751.50
2023-05-17T04:38:47.229Z,98755.22
2023-05-17T04:41:13.730Z,98758.56
2023-05-17T04:43:40.314Z,98752.13
2023-05-17T04:46:07.062Z,98753.78
2023-05-17T04:48:33.735Z,98763.34
2023-05-17T04:51:02.254Z,98760.41
2023-05-17T04:53:28.679Z,98764.00
2023-05-17T04:55:55.143Z,98775.72
2023-05-17T04:58:21.716Z,98773.69
2023-05-17T05:00:48.214Z,98779.75
2023-05-17T05:03:14.742Z,98780.06
2023-05-17T05:05:41.315Z,98782.41
2023-05-17T05:08:09.581Z,98780.94
2023-05-17T05:10:36.379Z,98786.03
2023-05-17T05:13:02.833Z,98784.38
2023-05-17T05:15:29.447Z,98792.78
2023-05-17T05:17:56.373Z,98784.16
2023-05-17T05:20:22.867Z,98794.94
2023-05-17T05:22:49.444Z,98798.88
2023-05-17T05:25:16.032Z,98811.44
2023-05-17T05:27:42.518Z,98806.00
2023-05-17T05:30:09.564Z,98813.06
2023-05-17T05:32:37.972Z,98818.03
2023-05-17T05:35:05.683Z,98819.13
2023-05-17T05:37:32.250Z,98821.72
2023-05-17T05:39:59.905Z,98820.88
2023-05-17T05:42:27.588Z,98821.28
2023-05-17T05:44:54.403Z,98824.69
2023-05-17T05:47:20.862Z,98827.75
2023-05-17T05:49:47.313Z,98835.19
2023-05-17T05:52:13.770Z,98835.69
2023-05-17T05:54:40.354Z,98839.97
2023-05-17T05:57:06.824Z,98844.53
2023-05-17T05:59:33.333Z,98853.50
2023-05-17T06:01:59.901Z,98852.75
2023-05-17T06:04:40.753Z,98854.91
2023-05-17T06:07:14.768Z,98850.53
2023-05-17T06:09:42.250Z,98856.50
2023-05-17T06:12:08.881Z,98865.09
2023-05-17T06:14:37.376Z,98868.25
2023-05-17T06:17:04.241Z,98865.06
2023-05-17T06:19:49.510Z,98861.41
2023-05-17T06:22:16.332Z,98861.38
2023-05-17T06:24:42.858Z,98855.28
2023-05-17T06:27:09.330Z,98861.69
2023-05-17T06:29:38.235Z,98872.88
2023-05-17T06:32:05.149Z,98867.59
2023-05-17T06:34:31.621Z,98876.47
2023-05-17T06:36:58.521Z,98870.59
2023-05-17T06:39:25.011Z,98877.41
2023-05-17T06:41:51.490Z,98875.13
2023-05-17T06:44:18.021Z,98878.91
2023-05-17T06:46:44.467Z,98876.06
2023-05-17T06:49:11.038Z,98876.94
2023-05-17T06:51:39.356Z,98879.81
2023-05-17T06:54:08.861Z,98877.13
2023-05-17T06:56:35.514Z,98870.03
2023-05-17T06:59:02.349Z,98877.75
2023-05-17T07:01:31.955Z,98875.97
2023-05-17T07:03:58.485Z,98882.25
2023-05-17T07:06:25.174Z,98883.88
2023-05-17T07:08:51.618Z,98889.16
2023-05-17T07:11:19.894Z,98884.53
2023-05-17T07:13:46.890Z,98881.84
2023-05-17T07:16:13.418Z,98878.09
2023-05-17T07:18:39.917Z,98879.13
2023-05-17T07:21:06.461Z,98873.38
2023-05-17T07:23:32.939Z,98873.16
2023-05-17T07:25:59.405Z,98875.56
2023-05-17T07:28:26.208Z,98878.38
2023-05-17T07:30:52.681Z,98873.28
2023-05-17T07:33:19.516Z,98880.63
2023-05-17T07:35:46.036Z,98871.53
2023-05-17T07:38:12.606Z,98878.88
2023-05-17T07:40:39.068Z,98874.75
2023-05-17T07:43:05.852Z,98880.38
2023-05-17T07:45:32.400Z,98880.50
2023-05-17T07:47:59.117Z,98887.44
2023-05-17T07:50:26.002Z,98888.25
2023-05-17T07:52:52.787Z,98891.50
2023-05-17T07:55:22.443Z,98875.41
2023-05-17T07:57:48.983Z,98880.13
2023-05-17T08:00:19.183Z,98880.41
2023-05-17T08:02:46.549Z,98877.41
2023-05-17T08:05:13.178Z,98880.91
2023-05-17T08:07:39.660Z,98879.41
2023-05-17T08:10:06.630Z,98888.38
2023-05-17T08:12:33.256Z,98886.69
2023-05-17T08:15:00.108Z,98885.41
2023-05-17T08:17:26.667Z,98885.50
2023-05-17T08:20:00.684Z,98886.53
2023-05-17T08:22:29.595Z,98885.59
2023-05-17T08:24:56.046Z,98889.47
2023-05-17T08:27:22.591Z,98884.88
2023-05-17T08:29:49.048Z,98887.81
2023-05-17T08:32:15.498Z,98894.09
2023-05-17T08:34:42.243Z,98888.72
2023-05-17T08:37:12.386Z,98884.94
2023-05-17T08:39:38.933Z,98884.19
2023-05-17T08:42:08.665Z,98884.00
2023-05-17T08:44:36.464Z,98882.22
2023-05-17T08:47:04.167Z,98876.47
2023-05-17T08:49:34.739Z,98880.09
2023-05-17T08:52:03.351Z,98892.91
2023-05-17T08:54:29.921Z,98884.19
2023-05-17T08:57:00.214Z,98889.78
2023-05-17T08:59:33.491Z,98888.38
2023-05-17T09:02:01.214Z,98886.84
2023-05-17T09:04:29.880Z,98884.06
2023-05-17T09:06:56.388Z,98882.22
2023-05-17T09:09:23.540Z,98880.94
2023-05-17T09:11:50.078Z,98888.50
2023-05-17T09:14:18.627Z,98882.97
2023-05-17T09:16:45.242Z,98887.78
2023-05-17T09:19:16.975Z,98888.81
2023-05-17T09:21:50.383Z,98893.66
2023-05-17T09:24:26.881Z,98896.69
2023-05-17T09:26:53.304Z,98895.63
2023-05-17T09:29:19.746Z,98902.25
2023-05-17T09:31:46.310Z,98903.91
2023-05-17T09:34:13.099Z,98913.47
2023-05-17T09:36:54.738Z,98903.34
2023-05-17T09:39:21.581Z,98903.69
2023-05-17T09:41:50.081Z,98913.00
2023-05-17T09:44:16.779Z,98913.16
2023-05-17T09:46:48.287Z,98915.88
2023-05-17T09:49:16.433Z,98919.59
2023-05-17T09:51:44.669Z,98915.69
2023-05-17T09:54:11.594Z,98925.31
2023-05-17T09:56:39.126Z,98923.75
2023-05-17T09:59:19.129Z,98925.16
2023-05-17T10:01:46.855Z,98930.41
2023-05-17T10:04:20.715Z,98934.97
2023-05-17T10:06:52.254Z,98938.53
2023-05-17T10:09:24.041Z,98941.16
2023-05-17T10:11:53.194Z,98936.91
2023-05-17T10:14:34.034Z,98937.97
2023-05-17T10:17:03.291Z,98938.72
2023-05-17T10:19:31.748Z,98933.94
2023-05-17T10:22:05.066Z,98932.84
2023-05-17T10:24:46.725Z,98937.50
2023-05-17T10:27:13.643Z,98934.84
2023-05-17T10:29:42.742Z,98936.56
2023-05-17T10:32:10.614Z,98934.63
2023-05-17T10:34:42.374Z,98939.81
2023-05-17T10:37:25.120Z,98940.53
2023-05-17T10:40:17.761Z,98941.41
2023-05-17T10:42:50.964Z,98934.44
2023-05-17T10:45:21.312Z,98944.53
2023-05-17T10:47:55.030Z,98937.53
2023-05-17T10:50:27.333Z,98936.47
2023-05-17T10:53:09.832Z,98937.13
2023-05-17T10:55:44.602Z,98932.56
2023-05-17T10:58:12.464Z,98941.06
2023-05-17T11:00:50.123Z,98933.94
2023-05-17T11:03:30.426Z,98931.38
2023-05-17T11:06:24.508Z,98925.56
2023-05-17T11:09:15.185Z,98927.19
2023-05-17T11:12:05.416Z,98922.06
2023-05-17T11:14:55.271Z,98925.75
2023-05-17T11:17:35.902Z,98931.84
2023-05-17T11:20:10.865Z,98913.69
2023-05-17T11:22:42.570Z,98920.72
2023-05-17T11:25:13.445Z,98910.44
2023-05-17T11:27:48.092Z,98915.81
2023-05-17T11:30:31.291Z,98913.59
2023-05-17T11:33:17.316Z,98917.44
2023-05-17T11:35:54.730Z,98915.34
2023-05-17T11:38:33.193Z,98908.97
2023-05-17T11:43:52.171Z,98909.78
2023-05-17T11:46:20.781Z,98904.06
2023-05-17T11:48:52.824Z,98903.13
2023-05-17T11:51:24.657Z,98910.28
2023-05-17T11:53:57.465Z,98895.63
2023-05-17T11:56:41.990Z,98900.47
2023-05-17T11:59:15.165Z,98900.09
2023-05-17T12:01:46.578Z,98899.97
2023-05-17T12:04:13.870Z,98895.44
2023-05-17T12:06:45.181Z,98894.19
2023-05-17T12:09:17.730Z,98890.78
2023-05-17T12:11:44.622Z,98885.28
2023-05-17T12:14:15.661Z,98894.44
2023-05-17T12:16:43.969Z,98888.69
2023-05-17T12:19:20.586Z,98879.63
2023-05-17T12:21:47.806Z,98886.69
2023-05-17T12:24:17.322Z,98878.72
2023-05-17T12:26:45.971Z,98885.06
2023-05-17T12:29:21.602Z,98890.25
2023-05-17T12:31:51.103Z,98877.59
2023-05-17T12:34:20.318Z,98882.63
2023-05-17T12:36:47.226Z,98884.72
2023-05-17T12:39:15.757Z,98886.84
2023-05-17T12:41:49.909Z,98884.22
2023-05-17T12:44:17.936Z,98889.34
2023-05-17T12:47:26.023Z,98890.03
2023-05-17T12:49:58.934Z,98892.28
2023-05-17T12:52:37.589Z,98889.25
2023-05-17T12:55:04.909Z,98897.75
2023-05-17T12:57:31.985Z,98899.72
2023-05-17T13:00:09.411Z,98896.69
2023-05-17T13:02:36.143Z,98894.81
2023-05-17T13:05:21.501Z,98894.97
2023-05-17T13:07:48.411Z,98897.44
2023-05-17T13:10:29.195Z,98901.09
2023-05-17T13:13:00.413Z,98902.72
2023-05-17T13:15:31.837Z,98899.97
2023-05-17T13:18:03.382Z,98898.41
2023-05-17T13:20:38.595Z,98902.59
2023-05-17T13:23:06.430Z,98893.00
2023-05-17T13:25:36.305Z,98887.31
2023-05-17T13:28:03.889Z,98889.94
2023-05-17T13:30:33.669Z,98889.75
2023-05-17T13:33:00.405Z,98888.75
2023-05-17T13:35:27.028Z,98893.00
2023-05-17T13:38:04.510Z,98892.25
2023-05-17T13:40:43.110Z,98889.94
2023-05-17T13:43:09.988Z,98888.72
2023-05-17T13:45:37.133Z,98892.41
2023-05-17T13:48:04.200Z,98892.41
2023-05-17T13:50:31.516Z,98898.22
2023-05-17T13:53:11.449Z,98887.13
2023-05-17T13:55:42.197Z,98898.09
2023-05-17T13:58:11.977Z,98898.09
2023-05-17T14:00:43.082Z,98890.81
2023-05-17T14:03:19.101Z,98894.72
2023-05-17T14:05:50.635Z,98885.06
2023-05-17T14:08:22.511Z,98887.25
2023-05-17T14:11:01.080Z,98893.13
2023-05-17T14:13:50.251Z,98889.25
2023-05-17T14:16:17.225Z,98883.00
2023-05-17T14:18:47.157Z,98892.91
2023-05-17T14:21:14.358Z,98895.53
2023-05-17T14:24:18.586Z,98891.50
2023-05-17T14:27:03.837Z,98890.16
2023-05-17T14:29:33.082Z,98888.84
2023-05-17T14:31:59.952Z,98888.03
2023-05-17T14:34:26.634Z,98892.56
2023-05-17T14:36:56.595Z,98888.53
2023-05-17T14:39:26.117Z,98882.50
2023-05-17T14:42:03.414Z,98888.44
2023-05-17T14:44:47.340Z,98880.59
2023-05-17T14:47:16.724Z,98890.44
2023-05-17T14:49:43.495Z,98885.25
2023-05-17T14:52:17.393Z,98890.97
2023-05-17T14:54:47.500Z,98888.75
2023-05-17T14:57:14.265Z,98887.03
2023-05-17T14:59:53.104Z,98879.19
2023-05-17T15:02:25.451Z,98880.03
2023-05-17T15:05:15.774Z,98880.59
2023-05-17T15:07:42.879Z,98882.38
2023-05-17T15:10:14.323Z,98886.22
2023-05-17T15:12:41.187Z,98877.03
2023-05-17T15:15:19.487Z,98869.97
2023-05-17T15:18:24.544Z,98868.66
2023-05-17T15:23:41.458Z,98878.47
2023-05-17T15:26:26.190Z,98876.97
2023-05-17T15:29:05.191Z,98876.28
2023-05-17T15:31:37.397Z,98873.56
2023-05-17T15:34:17.538Z,98868.06
2023-05-17T15:36:44.469Z,98869.03
2023-05-17T15:39:22.418Z,98866.00
2023-05-17T15:41:56.759Z,98871.16
2023-05-17T15:44:24.201Z,98866.81
2023-05-17T15:47:01.499Z,98866.13
2023-05-17T15:49:51.390Z,98867.59
2023-05-17T15:52:42.981Z,98861.38
2023-05-17T15:55:12.699Z,98859.16
2023-05-17T15:57:49.110Z,98858.09
2023-05-17T16:00:31.383Z,98858.03
2023-05-17T16:03:17.317Z,98855.78
2023-05-17T16:06:08.527Z,98851.13
2023-05-17T16:08:35.349Z,98857.97
2023-05-17T16:11:10.420Z,98853.34
2023-05-17T16:13:37.412Z,98856.88
2023-05-17T16:16:04.434Z,98860.25
2023-05-17T16:18:31.832Z,98851.38
2023-05-17T16:21:05.102Z,98859.16
2023-05-17T16:23:32.624Z,98856.69
2023-05-17T16:25:59.405Z,98857.56
2023-05-17T16:28:26.162Z,98855.00
2023-05-17T16:30:53.085Z,98854.88
2023-05-17T16:33:22.945Z,98863.31
2023-05-17T16:35:55.962Z,98851.03
2023-05-17T16:38:22.523Z,98858.75
2023-05-17T16:40:49.217Z,98848.63
2023-05-17T16:43:16.042Z,98850.72
2023-05-17T16:45:44.830Z,98852.31
2023-05-17T16:48:14.034Z,98851.72
2023-05-17T16:50:43.636Z,98853.91
2023-05-17T16:53:10.208Z,98853.72
2023-05-17T16:55:36.824Z,98858.50
2023-05-17T16:58:03.753Z,98862.19
2023-05-17T17:00:31.294Z,98865.50
2023-05-17T17:02:59.176Z,98855.00
2023-05-17T17:05:27.073Z,98863.97
2023-05-17T17:07:54.086Z,98862.31
2023-05-17T17:10:21.276Z,98864.00
2023-05-17T17:12:48.076Z,98868.22
2023-05-17T17:15:15.595Z,98867.88
2023-05-17T17:17:43.542Z,98862.91
2023-05-17T17:20:11.330Z,98864.91
2023-05-17T17:22:37.943Z,98866.75
2023-05-17T17:25:04.936Z,98865.97
2023-05-17T17:27:31.739Z,98864.41
2023-05-17T17:29:58.330Z,98869.72
2023-05-17T17:32:25.805Z,98873.00
2023-05-17T17:34:52.484Z,98862.16
2023-05-17T17:37:19.327Z,98869.38
2023-05-17T17:39:45.912Z,98873.84
2023-05-17T17:42:16.955Z,98875.94
2023-05-17T17:44:43.545Z,98884.59
2023-05-17T17:47:10.131Z,98882.94
2023-05-17T17:49:37.168Z,98889.06
2023-05-17T17:52:03.991Z,98896.22
2023-05-17T17:54:30.740Z,98886.78
2023-05-17T17:56:57.377Z,98892.06
2023-05-17T17:59:24.082Z,98894.75
2023-05-17T18:01:50.996Z,98893.97
2023-05-17T18:04:17.683Z,98887.09
2023-05-17T18:06:45.884Z,98891.72
2023-05-17T18:09:12.437Z,98892.84
2023-05-17T18:11:39.081Z,98892.78
2023-05-17T18:14:06.281Z,98891.91
2023-05-17T18:16:32.985Z,98898.09
2023-05-17T18:19:03.967Z,98896.59
2023-05-17T18:22:07.968Z,98900.97
2023-05-17T18:24:35.007Z,98903.94
2023-05-17T18:27:01.811Z,98905.72
2023-05-17T18:29:28.665Z,98906.69
2023-05-17T18:31:55.841Z,98902.66
2023-05-17T18:34:22.443Z,98905.41
2023-05-17T18:36:49.094Z,98905.34
2023-05-17T18:39:15.846Z,98905.59
2023-05-17T18:41:42.636Z,98913.66
2023-05-17T18:44:09.608Z,98923.44
2023-05-17T18:46:36.428Z,98920.94
2023-05-17T18:49:05.565Z,98921.28
2023-05-17T18:51:32.678Z,98925.69
2023-05-17T18:53:59.284Z,98931.78
2023-05-17T18:56:32.712Z,98937.81
2023-05-17T18:59:13.897Z,98933.72
2023-05-17T19:01:40.653Z,98925.34
2023-05-17T19:04:07.212Z,98936.69
2023-05-17T19:06:33.786Z,98946.41
2023-05-17T19:09:00.335Z,98949.28
2023-05-17T19:11:29.163Z,98950.19
2023-05-17T19:13:56.069Z,98952.16
2023-05-17T19:16:22.703Z,98960.16
2023-05-17T19:18:49.986Z,98950.84
2023-05-17T19:21:16.685Z,98952.81
2023-05-17T19:23:43.356Z,98957.28
2023-05-17T19:26:09.886Z,98962.63
2023-05-17T19:28:36.538Z,98966.22
2023-05-17T19:31:03.847Z,98966.38
2023-05-17T19:33:32.053Z,98970.81
2023-05-17T19:35:58.713Z,98978.53
2023-05-17T19:38:25.396Z,98976.88
2023-05-17T19:40:52.078Z,98985.63
2023-05-17T19:43:18.698Z,98989.88
2023-05-17T19:45:45.381Z,98988.25
2023-05-17T19:48:12.151Z,98995.03
2023-05-17T19:50:38.951Z,98997.75
2023-05-17T19:53:05.830Z,98990.06
2023-05-17T19:55:34.072Z,98995.34
2023-05-17T19:58:03.445Z,98998.88
2023-05-17T20:00:31.836Z,98992.00
2023-05-17T20:02:58.702Z,98994.59
2023-05-17T20:05:28.313Z,98992.00
2023-05-17T20:07:55.654Z,98999.00
2023-05-17T20:10:22.375Z,98999.13
2023-05-17T20:12:48.905Z,98996.53
2023-05-17T20:15:15.490Z,98997.50
2023-05-17T20:17:42.146Z,98999.94
2023-05-17T20:20:11.443Z,98994.94
2023-05-17T20:22:43.137Z,98999.16
2023-05-17T20:25:09.955Z,99001.88
2023-05-17T20:27:36.557Z,98998.50
2023-05-17T20:30:03.677Z,98998.44
2023-05-17T20:32:30.473Z,98999.38
2023-05-17T20:35:13.136Z,98997.59
2023-05-17T20:37:42.116Z,99001.03
2023-05-17T20:40:11.893Z,99009.75
2023-05-17T20:42:45.160Z,99011.53
2023-05-17T20:45:16.329Z,99009.81
2023-05-17T20:47:43.044Z,99014.28
2023-05-17T20:50:12.411Z,99012.59
2023-05-17T20:52:43.577Z,99010.97
2023-05-17T20:55:22.948Z,99011.84
2023-05-17T20:57:50.041Z,99010.88
2023-05-17T21:00:19.749Z,99015.28
2023-05-17T21:02:49.099Z,99021.38
2023-05-17T21:05:41.051Z,99015.53
2023-05-17T21:08:38.192Z,99010.31
2023-05-17T21:11:07.481Z,99012.00
2023-05-17T21:13:46.311Z,99012.16
2023-05-17T21:19:36.431Z,99006.06
2023-05-17T21:22:16.419Z,99016.66
2023-05-17T21:24:45.812Z,99014.13
2023-05-17T21:27:46.508Z,99016.72
2023-05-17T21:30:26.800Z,99013.41
2023-05-17T21:33:20.411Z,99016.13
2023-05-17T21:36:30.672Z,99011.09
2023-05-17T21:42:49.961Z,99006.88
2023-05-17T22:20:43.264Z,99012.00
2023-05-17T22:26:40.238Z,99008.53
2023-05-17T22:29:22.098Z,99012.00
2023-05-17T22:32:18.460Z,99008.63
2023-05-17T22:35:05.346Z,99008.72
2023-05-17T22:37:44.565Z,99018.19
2023-05-17T22:40:11.300Z,99017.28
2023-05-17T22:42:37.862Z,99021.63
2023-05-17T22:45:04.878Z,99016.56
2023-05-17T22:47:31.970Z,99020.03
2023-05-17T22:50:00.742Z,99027.72
2023-05-17T22:52:27.315Z,99024.38
2023-05-17T22:54:53.823Z,99022.75
2023-05-17T22:57:20.418Z,99019.44
2023-05-17T22:59:46.993Z,99026.31
2023-05-17T23:02:13.588Z,99019.56
2023-05-17T23:04:40.474Z,99024.66
2023-05-17T23:07:09.991Z,99026.38
2023-05-17T23:09:40.414Z,99031.44
2023-05-17T23:12:07.872Z,99032.25
2023-05-17T23:14:36.148Z,99027.13
2023-05-17T23:17:05.815Z,99030.50
2023-05-17T23:19:35.825Z,99029.59
2023-05-17T23:22:03.448Z,99028.75
2023-05-17T23:24:30.241Z,99025.28
2023-05-17T23:26:57.632Z,99024.50
2023-05-17T23:29:25.696Z,99024.56
2023-05-17T23:31:52.487Z,99024.63
2023-05-17T23:34:18.953Z,99017.06
2023-05-17T23:36:45.638Z,99013.75
2023-05-17T23:39:12.100Z,99025.03
2023-05-17T23:41:38.763Z,99023.41
2023-05-17T23:44:05.528Z,99030.34
2023-05-17T23:46:32.395Z,99027.00
2023-05-17T23:48:59.028Z,99027.09
2023-05-17T23:51:25.749Z,99023.72
2023-05-17T23:53:52.400Z,99025.50
2023-05-17T23:56:21.132Z,99021.22
2023-05-17T23:58:47.777Z,99022.97
